Time;durP1;ratioP1;P1;durP2;ratioP2;P2;SDS_P1;SDS_P2;PMS_P1;PMS_P2;Temp;Humidity;BMP_temperature;BMP_pressure;BME280_temperature;BME280_humidity;BME280_pressure;Samples;Min_cycle;Max_cycle;Signal;HPM_P1;HPM_P2
2022/08/27 00:02:14;;;;;;;11.43;10.50;;;21.70;99.90;;;;;;5096474;28;20253;-72
2022/08/27 00:04:43;;;;;;;11.52;10.10;;;21.60;99.90;;;;;;5089520;28;20207;-72
2022/08/27 00:07:11;;;;;;;12.15;11.05;;;21.70;99.90;;;;;;5090074;28;20566;-72
2022/08/27 00:09:38;;;;;;;12.10;10.90;;;21.60;99.90;;;;;;5089720;28;20223;-72
2022/08/27 00:12:06;;;;;;;11.38;10.20;;;21.70;99.90;;;;;;5089674;28;20217;-72
2022/08/27 00:14:34;;;;;;;11.63;10.50;;;21.60;99.90;;;;;;5108731;28;20222;-72
2022/08/27 00:17:01;;;;;;;11.73;10.40;;;21.60;99.90;;;;;;5089889;28;20203;-72
2022/08/27 00:19:28;;;;;;;11.48;10.48;;;21.60;99.90;;;;;;5105307;28;20212;-72
2022/08/27 00:21:56;;;;;;;11.87;10.87;;;21.60;99.90;;;;;;5109747;28;20202;-72
2022/08/27 00:24:23;;;;;;;11.90;10.70;;;21.60;99.90;;;;;;5104579;28;20684;-72
2022/08/27 00:26:52;;;;;;;13.50;11.47;;;21.60;99.90;;;;;;5109717;28;20233;-72
2022/08/27 00:29:19;;;;;;;11.57;10.63;;;21.50;99.90;;;;;;5109668;28;20320;-72
2022/08/27 00:31:46;;;;;;;12.50;11.50;;;21.50;99.90;;;;;;5094538;28;20222;-70
2022/08/27 00:34:13;;;;;;;11.88;10.73;;;21.60;99.90;;;;;;5109827;28;20206;-70
2022/08/27 00:36:40;;;;;;;12.13;11.18;;;21.50;99.90;;;;;;5109233;28;20660;-69
2022/08/27 00:39:09;;;;;;;12.50;11.40;;;21.60;99.90;;;;;;5109553;28;20252;-71
2022/08/27 00:41:36;;;;;;;11.93;10.73;;;21.60;99.90;;;;;;5108546;27;20210;-71
2022/08/27 00:44:05;;;;;;;11.80;10.60;;;21.60;99.90;;;;;;5093504;28;20302;-71
2022/08/27 00:46:36;;;;;;;11.38;10.27;;;21.50;99.90;;;;;;5096915;28;20221;-71
2022/08/27 00:49:09;;;;;;;11.05;10.05;;;21.30;99.90;;;;;;5109442;28;20278;-74
2022/08/27 00:51:36;;;;;;;11.40;10.30;;;21.20;99.90;;;;;;5108941;28;20799;-74
2022/08/27 00:54:06;;;;;;;11.93;10.50;;;21.30;99.90;;;;;;5108478;27;20194;-71
2022/08/27 00:56:38;;;;;;;10.60;9.60;;;21.30;99.90;;;;;;5108862;28;20210;-73
2022/08/27 00:59:05;;;;;;;13.98;10.00;;;21.30;99.90;;;;;;5095574;27;20203;-72
2022/08/27 01:02:17;;;;;;;13.65;10.27;;;21.40;99.90;;;;;;5088519;28;20214;-71
2022/08/27 01:04:21;;;;;;;11.70;10.55;;;21.40;99.90;;;;;;5088277;28;20291;-71
2022/08/27 01:06:48;;;;;;;12.00;10.80;;;21.40;99.90;;;;;;5088384;28;20672;-70
2022/08/27 01:09:17;;;;;;;11.77;10.63;;;21.50;99.90;;;;;;5088660;28;20573;-71
2022/08/27 01:11:47;;;;;;;11.43;10.43;;;21.50;99.90;;;;;;5094869;28;20230;-71
2022/08/27 01:14:14;;;;;;;14.52;10.68;;;21.50;99.90;;;;;;5109203;28;20218;-71
2022/08/27 01:16:45;;;;;;;12.75;11.65;;;21.50;99.90;;;;;;5108606;28;20209;-70
2022/08/27 01:19:26;;;;;;;12.47;11.47;;;21.50;99.90;;;;;;5108355;28;20186;-70
2022/08/27 01:21:59;;;;;;;12.03;10.87;;;21.60;99.90;;;;;;5108545;28;20246;-70
2022/08/27 01:24:35;;;;;;;12.52;10.90;;;21.50;99.90;;;;;;5108982;28;20208;-71
2022/08/27 01:27:04;;;;;;;12.10;10.90;;;21.60;99.90;;;;;;5108835;28;20197;-71
2022/08/27 01:29:31;;;;;;;12.80;11.13;;;21.60;99.90;;;;;;5108140;28;20204;-71
2022/08/27 01:32:05;;;;;;;12.23;11.00;;;21.60;99.90;;;;;;5108133;28;20643;-71
2022/08/27 01:34:32;;;;;;;12.75;11.38;;;21.60;99.90;;;;;;5108697;28;20548;-71
2022/08/27 01:36:59;;;;;;;14.98;11.82;;;21.60;99.90;;;;;;5108309;28;20206;-71
2022/08/27 01:39:26;;;;;;;11.90;10.70;;;21.60;99.90;;;;;;5099556;28;20202;-71
2022/08/27 01:41:54;;;;;;;13.07;11.77;;;21.60;99.90;;;;;;5107865;28;20204;-71
2022/08/27 01:44:21;;;;;;;12.93;11.52;;;21.60;99.90;;;;;;5090743;28;20211;-71
2022/08/27 01:46:47;;;;;;;11.60;10.63;;;21.60;99.90;;;;;;5087671;28;20236;-72
2022/08/27 01:49:14;;;;;;;16.17;12.15;;;21.60;99.90;;;;;;5087747;28;20207;-72
2022/08/27 01:51:41;;;;;;;13.20;11.77;;;21.60;99.90;;;;;;5087456;28;20254;-72
2022/08/27 01:54:08;;;;;;;13.60;12.30;;;21.50;99.90;;;;;;5098698;28;20206;-72
2022/08/27 01:56:35;;;;;;;17.97;14.20;;;21.50;99.90;;;;;;5087697;28;20230;-72
2022/08/27 01:59:03;;;;;;;14.50;12.97;;;21.40;99.90;;;;;;5087665;28;20214;-72
2022/08/27 02:01:30;;;;;;;14.60;12.98;;;21.40;99.90;;;;;;5099752;28;20224;-72
2022/08/27 02:03:56;;;;;;;14.98;13.48;;;21.40;99.90;;;;;;5107779;28;20209;-71
2022/08/27 02:06:23;;;;;;;14.18;12.65;;;21.50;99.90;;;;;;5100070;28;20542;-72
2022/08/27 02:08:50;;;;;;;14.57;13.17;;;21.50;99.90;;;;;;5087704;28;20210;-72
2022/08/27 02:11:17;;;;;;;17.13;14.70;;;21.50;99.90;;;;;;5087456;28;20604;-72
2022/08/27 02:13:44;;;;;;;15.33;13.83;;;21.40;99.90;;;;;;5094027;28;20207;-72
2022/08/27 02:16:13;;;;;;;16.13;14.43;;;21.50;99.90;;;;;;5089653;28;20208;-72
2022/08/27 02:18:40;;;;;;;21.40;15.73;;;21.50;99.90;;;;;;5097481;28;20211;-72
2022/08/27 02:21:07;;;;;;;17.17;15.43;;;21.50;99.90;;;;;;5087666;28;20223;-72
2022/08/27 02:23:34;;;;;;;20.53;16.20;;;21.50;99.90;;;;;;5106468;28;20206;-72
2022/08/27 02:26:00;;;;;;;19.05;15.93;;;21.50;99.90;;;;;;5107979;28;20210;-72
2022/08/27 02:28:27;;;;;;;19.73;17.10;;;21.50;99.90;;;;;;5107512;28;20679;-71
2022/08/27 02:30:54;;;;;;;23.40;17.35;;;21.40;99.90;;;;;;5106524;28;20332;-72
2022/08/27 02:33:22;;;;;;;22.20;17.03;;;21.40;99.90;;;;;;5107869;28;20206;-72
2022/08/27 02:35:49;;;;;;;21.10;17.33;;;21.40;99.90;;;;;;5103329;28;20657;-72
2022/08/27 02:38:16;;;;;;;26.60;16.85;;;21.40;99.90;;;;;;5088901;28;20210;-72
2022/08/27 02:40:43;;;;;;;23.60;17.17;;;21.40;99.90;;;;;;5107553;28;20213;-72
2022/08/27 02:43:09;;;;;;;24.97;18.90;;;21.20;99.90;;;;;;5106654;28;20596;-72
2022/08/27 02:45:36;;;;;;;23.60;17.20;;;21.20;99.90;;;;;;5086926;28;20964;-73
2022/08/27 02:48:03;;;;;;;23.37;19.00;;;21.20;99.90;;;;;;5086867;28;20298;-73
2022/08/27 02:50:32;;;;;;;23.27;17.70;;;21.20;99.90;;;;;;5106489;28;20229;-73
2022/08/27 02:53:01;;;;;;;23.60;18.77;;;21.30;99.90;;;;;;5106987;28;20234;-74
2022/08/27 02:55:28;;;;;;;29.07;18.97;;;21.30;99.90;;;;;;5095584;28;20211;-73
2022/08/27 02:57:55;;;;;;;25.53;17.67;;;21.20;99.90;;;;;;5087256;28;20206;-73
2022/08/27 03:00:24;;;;;;;22.57;17.67;;;21.20;99.90;;;;;;5087241;28;20574;-73
2022/08/27 03:02:51;;;;;;;29.37;18.50;;;21.20;99.90;;;;;;5086984;28;20279;-73
2022/08/27 03:05:19;;;;;;;26.37;19.73;;;21.10;99.90;;;;;;5102598;28;20209;-72
2022/08/27 03:07:49;;;;;;;25.07;18.53;;;21.10;99.90;;;;;;5096053;28;20210;-72
2022/08/27 03:10:18;;;;;;;27.30;18.00;;;21.00;99.90;;;;;;5094841;28;20206;-72
2022/08/27 03:12:45;;;;;;;26.40;17.37;;;21.00;99.90;;;;;;5106582;28;20202;-74
2022/08/27 03:15:15;;;;;;;25.97;18.23;;;21.10;99.90;;;;;;5106906;28;20640;-73
2022/08/27 03:20:27;;;;;;;21.93;16.73;;;21.10;99.90;;;;;;5095783;28;20222;-73
2022/08/27 03:22:55;;;;;;;24.77;18.00;;;21.00;99.90;;;;;;5107446;28;20206;-72
2022/08/27 03:25:23;;;;;;;19.03;16.17;;;21.10;99.90;;;;;;5107119;28;20206;-71
2022/08/27 03:27:49;;;;;;;18.93;15.93;;;21.10;99.90;;;;;;5107185;28;20202;-70
2022/08/27 03:30:19;;;;;;;21.63;16.43;;;21.10;99.90;;;;;;5110506;28;20206;-70
2022/08/27 03:32:46;;;;;;;19.33;16.30;;;21.00;99.90;;;;;;5109858;28;20198;-70
2022/08/27 03:35:14;;;;;;;21.03;15.57;;;21.10;99.90;;;;;;5110910;28;20213;-70
2022/08/27 03:37:40;;;;;;;21.47;16.97;;;21.10;99.90;;;;;;5110519;28;20202;-70
2022/08/27 03:40:10;;;;;;;21.40;17.23;;;21.10;99.90;;;;;;5093273;28;20211;-70
2022/08/27 03:42:38;;;;;;;24.73;17.43;;;21.00;99.90;;;;;;5090081;28;20210;-72
2022/08/27 03:45:06;;;;;;;18.63;16.63;;;21.00;99.90;;;;;;5096798;28;20206;-72
2022/08/27 03:47:33;;;;;;;19.60;16.90;;;21.00;99.90;;;;;;5110293;28;20207;-72
2022/08/27 03:50:00;;;;;;;20.57;17.20;;;21.00;99.90;;;;;;5110129;28;20194;-72
2022/08/27 03:52:28;;;;;;;21.17;17.73;;;20.90;99.90;;;;;;5090692;28;20258;-73
2022/08/27 03:54:54;;;;;;;19.40;17.30;;;20.90;99.90;;;;;;5089840;28;20303;-73
2022/08/27 03:57:23;;;;;;;22.60;17.73;;;20.90;99.90;;;;;;5109482;28;20198;-73
2022/08/27 03:59:50;;;;;;;19.63;17.53;;;20.90;99.90;;;;;;5110035;28;20224;-73
2022/08/27 04:02:17;;;;;;;23.77;18.77;;;20.80;99.90;;;;;;5110173;28;20202;-73
2022/08/27 04:04:44;;;;;;;20.43;18.23;;;20.80;99.90;;;;;;5109970;28;20199;-73
2022/08/27 04:07:10;;;;;;;21.03;18.27;;;20.80;99.90;;;;;;5106532;28;20758;-73
2022/08/27 04:09:37;;;;;;;21.73;17.77;;;20.70;99.90;;;;;;5099076;28;20221;-73
2022/08/27 04:12:04;;;;;;;23.53;18.60;;;20.80;99.90;;;;;;5110171;28;20229;-73
2022/08/27 04:14:32;;;;;;;20.17;17.97;;;20.80;99.90;;;;;;5103817;28;20203;-73
2022/08/27 04:16:59;;;;;;;19.70;16.83;;;20.70;99.90;;;;;;5089478;28;20202;-73
2022/08/27 04:19:29;;;;;;;19.40;17.50;;;20.80;99.90;;;;;;5095575;28;20229;-72
2022/08/27 04:22:00;;;;;;;21.07;17.00;;;20.90;99.90;;;;;;5109499;28;20690;-72
2022/08/27 04:24:27;;;;;;;20.10;17.47;;;20.90;99.90;;;;;;5101034;28;20207;-72
2022/08/27 04:26:54;;;;;;;19.07;16.97;;;21.00;99.90;;;;;;5101201;28;20194;-72
2022/08/27 04:29:21;;;;;;;19.70;17.60;;;21.10;99.90;;;;;;5109604;28;20302;-72
2022/08/27 04:31:49;;;;;;;19.70;17.60;;;21.10;99.90;;;;;;5109136;28;20233;-72
2022/08/27 04:34:16;;;;;;;20.97;16.50;;;21.20;99.90;;;;;;5102877;28;20203;-72
2022/08/27 04:36:43;;;;;;;24.40;17.87;;;21.10;99.90;;;;;;5098750;28;20201;-72
2022/08/27 04:39:10;;;;;;;20.53;17.33;;;21.20;99.90;;;;;;5099805;28;20294;-72
2022/08/27 04:41:36;;;;;;;20.42;18.33;;;21.10;99.90;;;;;;5096440;28;20206;-72
2022/08/27 04:44:06;;;;;;;26.10;18.20;;;21.10;99.90;;;;;;5091799;28;20210;-72
2022/08/27 04:46:36;;;;;;;22.90;18.20;;;21.10;99.90;;;;;;5090468;28;20205;-72
2022/08/27 04:49:09;;;;;;;23.37;18.53;;;21.20;99.90;;;;;;5109500;27;20206;-72
2022/08/27 04:51:35;;;;;;;21.30;18.13;;;21.20;99.90;;;;;;5109123;28;20245;-74
2022/08/27 04:54:03;;;;;;;21.60;18.57;;;21.20;99.90;;;;;;5100111;28;20210;-72
2022/08/27 04:56:31;;;;;;;19.40;17.40;;;21.20;99.90;;;;;;5093216;28;20206;-73
2022/08/27 04:58:58;;;;;;;20.07;17.87;;;21.20;99.90;;;;;;5109389;28;20213;-73
2022/08/27 05:01:27;;;;;;;22.33;17.73;;;21.20;99.90;;;;;;5109096;28;20225;-73
2022/08/27 05:03:55;;;;;;;22.13;17.80;;;21.20;99.90;;;;;;5108572;28;20236;-73
2022/08/27 05:06:23;;;;;;;22.60;17.73;;;21.10;99.90;;;;;;5108801;28;20210;-71
2022/08/27 05:08:51;;;;;;;19.90;17.80;;;21.10;99.90;;;;;;5109201;28;20198;-71
2022/08/27 05:11:19;;;;;;;21.63;18.00;;;21.00;99.90;;;;;;5098545;28;20234;-71
2022/08/27 05:13:47;;;;;;;20.43;16.93;;;21.00;99.90;;;;;;5100778;28;20208;-71
2022/08/27 05:16:17;;;;;;;18.37;16.37;;;21.10;99.90;;;;;;5103520;28;20210;-71
2022/08/27 05:18:44;;;;;;;18.83;16.83;;;21.10;99.90;;;;;;5088650;28;20223;-71
2022/08/27 05:21:17;;;;;;;20.33;18.13;;;21.10;99.90;;;;;;5096073;28;20230;-71
2022/08/27 05:23:45;;;;;;;18.73;16.40;;;21.20;99.90;;;;;;5108699;28;20548;-71
2022/08/27 05:26:11;;;;;;;19.77;16.97;;;21.10;99.90;;;;;;5108599;28;20202;-72
2022/08/27 05:28:38;;;;;;;18.97;16.73;;;21.20;99.90;;;;;;5107463;28;20199;-72
2022/08/27 05:31:08;;;;;;;18.03;16.03;;;21.20;99.90;;;;;;5108530;28;20212;-73
2022/08/27 05:33:37;;;;;;;18.13;15.80;;;21.10;99.90;;;;;;5108703;28;20205;-73
2022/08/27 05:36:13;;;;;;;19.77;15.57;;;21.20;99.90;;;;;;5108772;27;20202;-73
2022/08/27 05:38:40;;;;;;;19.70;15.13;;;21.30;99.90;;;;;;5107228;28;20202;-73
2022/08/27 05:41:10;;;;;;;20.13;15.90;;;21.30;99.90;;;;;;5100203;28;20202;-73
2022/08/27 05:43:40;;;;;;;19.90;15.27;;;21.30;99.90;;;;;;5099911;28;20765;-73
2022/08/27 05:46:10;;;;;;;18.42;15.63;;;21.30;99.90;;;;;;5087933;28;20214;-70
2022/08/27 05:48:38;;;;;;;18.45;15.77;;;21.30;99.90;;;;;;5088075;28;20605;-71
2022/08/27 05:51:09;;;;;;;16.73;14.07;;;21.30;99.90;;;;;;5087111;28;20249;-72
2022/08/27 05:53:37;;;;;;;17.77;14.33;;;21.30;99.90;;;;;;5098973;28;20209;-72
2022/08/27 05:56:14;;;;;;;14.57;12.50;;;21.30;99.90;;;;;;5107937;28;20668;-72
2022/08/27 06:01:25;;;;;;;16.30;12.63;;;21.30;99.90;;;;;;5107690;28;20205;-73
2022/08/27 06:03:53;;;;;;;12.57;11.37;;;21.40;99.90;;;;;;5106757;28;20579;-73
2022/08/27 06:06:22;;;;;;;14.73;13.03;;;21.40;99.90;;;;;;5087756;28;20203;-72
2022/08/27 06:08:49;;;;;;;12.57;10.43;;;21.40;99.90;;;;;;5087684;28;20199;-73
2022/08/27 06:11:18;;;;;;;12.63;11.00;;;21.40;99.90;;;;;;5087269;28;20243;-73
2022/08/27 06:13:46;;;;;;;12.98;11.38;;;21.40;99.90;;;;;;5087609;28;20207;-72
2022/08/27 06:16:16;;;;;;;12.43;11.17;;;21.40;99.90;;;;;;5087811;28;20199;-72
2022/08/27 06:18:44;;;;;;;14.43;10.50;;;21.40;99.90;;;;;;5106001;28;20212;-73
2022/08/27 06:21:13;;;;;;;10.67;9.67;;;21.40;99.90;;;;;;5095578;28;20229;-73
2022/08/27 06:23:41;;;;;;;9.10;8.30;;;21.40;99.90;;;;;;5093736;28;20205;-71
2022/08/27 06:26:10;;;;;;;8.73;7.80;;;21.50;99.90;;;;;;5104286;28;20213;-71
2022/08/27 06:28:40;;;;;;;9.20;8.10;;;21.50;99.90;;;;;;5098736;28;20202;-71
2022/08/27 06:31:09;;;;;;;10.67;8.00;;;21.50;99.90;;;;;;5102938;28;20198;-71
2022/08/27 06:33:36;;;;;;;11.30;8.10;;;21.50;99.90;;;;;;5106161;28;20226;-71
2022/08/27 06:36:07;;;;;;;8.60;7.70;;;21.50;99.90;;;;;;5105677;28;20198;-71
2022/08/27 06:38:34;;;;;;;10.65;7.97;;;21.50;99.90;;;;;;5101402;28;20203;-69
2022/08/27 06:41:05;;;;;;;7.88;7.13;;;21.50;99.90;;;;;;5101329;28;20210;-71
2022/08/27 06:43:32;;;;;;;9.00;8.10;;;21.50;99.90;;;;;;5088556;28;20203;-71
2022/08/27 06:46:06;;;;;;;9.00;8.07;;;21.50;99.90;;;;;;5084966;28;20217;-71
2022/08/27 06:48:32;;;;;;;9.32;8.07;;;21.60;99.90;;;;;;5085461;28;20199;-72
2022/08/27 06:51:00;;;;;;;8.68;7.78;;;21.50;99.90;;;;;;5104775;28;20196;-70
2022/08/27 06:53:26;;;;;;;8.85;7.95;;;21.60;99.90;;;;;;5102062;28;20218;-71
2022/08/27 06:55:53;;;;;;;11.75;8.18;;;21.60;99.90;;;;;;5084791;28;20202;-70
2022/08/27 06:58:20;;;;;;;8.52;7.75;;;21.60;99.90;;;;;;5088337;28;20682;-70
2022/08/27 07:00:47;;;;;;;9.02;8.23;;;21.60;99.90;;;;;;5103028;28;20703;-70
2022/08/27 07:03:15;;;;;;;8.65;7.85;;;21.70;99.90;;;;;;5102187;28;20207;-70
2022/08/27 07:05:42;;;;;;;9.10;8.20;;;21.70;99.90;;;;;;5092511;28;20194;-69
2022/08/27 07:08:10;;;;;;;9.27;8.20;;;21.60;99.90;;;;;;5095390;28;20584;-69
2022/08/27 07:10:37;;;;;;;8.38;7.57;;;21.70;99.90;;;;;;5094911;28;20225;-71
2022/08/27 07:13:05;;;;;;;8.93;7.90;;;21.70;99.90;;;;;;5093278;28;20236;-71
2022/08/27 07:15:32;;;;;;;13.23;8.32;;;21.70;99.90;;;;;;5107385;28;20554;-71
2022/08/27 07:17:59;;;;;;;9.25;8.23;;;21.80;99.90;;;;;;5097130;27;20250;-71
2022/08/27 07:20:27;;;;;;;11.90;9.00;;;21.80;99.90;;;;;;5093066;28;20232;-71
2022/08/27 07:22:57;;;;;;;8.82;8.02;;;21.80;99.90;;;;;;5108390;28;20271;-70
2022/08/27 07:25:25;;;;;;;9.05;8.15;;;21.80;99.90;;;;;;5108417;28;20214;-71
2022/08/27 07:27:52;;;;;;;9.23;7.72;;;21.80;99.90;;;;;;5108387;28;20366;-71
2022/08/27 07:30:19;;;;;;;9.30;8.32;;;21.80;99.90;;;;;;5102170;27;21847;-71
2022/08/27 07:32:47;;;;;;;8.30;7.53;;;21.80;99.90;;;;;;5105075;28;20586;-71
2022/08/27 07:35:14;;;;;;;9.20;8.10;;;21.80;99.90;;;;;;5102231;28;20580;-71
2022/08/27 07:37:42;;;;;;;9.00;8.20;;;21.80;99.90;;;;;;5108283;28;20217;-71
2022/08/27 07:40:12;;;;;;;8.88;7.97;;;21.80;99.90;;;;;;5090320;28;20670;-71
2022/08/27 07:45:23;;;;;;;8.95;8.00;;;21.80;99.90;;;;;;5092574;28;20761;-71
2022/08/27 07:47:51;;;;;;;8.77;7.95;;;21.80;99.90;;;;;;5106318;28;20208;-71
2022/08/27 07:50:18;;;;;;;9.13;8.27;;;21.80;99.90;;;;;;5107972;28;20650;-71
2022/08/27 07:52:46;;;;;;;9.40;8.13;;;21.90;99.90;;;;;;5107521;28;20803;-71
2022/08/27 07:55:13;;;;;;;9.38;8.25;;;21.90;99.90;;;;;;5096975;27;20207;-71
2022/08/27 07:57:41;;;;;;;8.98;8.20;;;21.90;99.90;;;;;;5087114;28;20213;-71
2022/08/27 08:00:09;;;;;;;9.57;8.48;;;22.00;99.90;;;;;;5095590;28;20211;-71
2022/08/27 08:02:37;;;;;;;9.27;8.47;;;22.00;99.90;;;;;;5087363;28;20206;-71
2022/08/27 08:05:06;;;;;;;9.95;8.30;;;22.00;99.90;;;;;;5107411;28;20684;-71
2022/08/27 08:07:33;;;;;;;10.18;9.13;;;22.00;99.90;;;;;;5108184;28;20237;-71
2022/08/27 08:10:02;;;;;;;10.10;8.15;;;22.00;99.90;;;;;;5107533;27;20198;-71
2022/08/27 08:12:28;;;;;;;9.32;8.43;;;22.00;99.90;;;;;;5107939;28;20281;-71
2022/08/27 08:14:56;;;;;;;9.38;7.97;;;22.00;99.90;;;;;;5089886;28;20611;-71
2022/08/27 08:17:24;;;;;;;9.38;8.10;;;22.00;99.90;;;;;;5087171;28;20206;-71
2022/08/27 08:19:51;;;;;;;9.43;8.35;;;22.00;99.90;;;;;;5086965;28;20459;-71
2022/08/27 08:22:18;;;;;;;9.52;8.52;;;22.00;99.90;;;;;;5087388;28;20207;-71
2022/08/27 08:24:44;;;;;;;9.18;8.32;;;22.00;99.90;;;;;;5087271;28;20210;-71
2022/08/27 08:27:13;;;;;;;11.45;9.73;;;22.00;99.90;;;;;;5089638;28;20280;-71
2022/08/27 08:29:39;;;;;;;9.63;8.20;;;22.00;99.90;;;;;;5108234;28;20212;-71
2022/08/27 08:32:07;;;;;;;12.52;9.02;;;22.00;99.90;;;;;;5107236;28;20204;-71
2022/08/27 08:34:35;;;;;;;9.93;8.68;;;21.90;99.90;;;;;;5106722;28;20210;-71
2022/08/27 08:37:03;;;;;;;10.40;8.43;;;22.00;99.90;;;;;;5095054;28;20572;-71
2022/08/27 08:39:30;;;;;;;13.20;9.48;;;22.00;99.90;;;;;;5086935;28;20211;-71
2022/08/27 08:41:58;;;;;;;9.40;8.27;;;22.00;99.90;;;;;;5094346;28;20289;-71
2022/08/27 08:44:31;;;;;;;11.10;8.30;;;22.00;99.90;;;;;;5088483;28;20213;-71
2022/08/27 08:47:03;;;;;;;13.55;8.68;;;22.00;99.90;;;;;;5086685;28;20336;-71
2022/08/27 08:49:38;;;;;;;10.80;9.00;;;22.00;99.90;;;;;;5099803;28;20194;-71
2022/08/27 08:52:15;;;;;;;10.25;9.25;;;22.10;99.90;;;;;;5102232;28;20319;-71
2022/08/27 08:54:43;;;;;;;10.60;9.50;;;22.00;99.90;;;;;;5107292;28;20194;-71
2022/08/27 08:57:19;;;;;;;10.15;8.77;;;22.10;99.90;;;;;;5107126;28;20558;-71
2022/08/27 08:59:56;;;;;;;10.57;9.57;;;22.10;99.90;;;;;;5091573;28;20213;-71
2022/08/27 09:02:23;;;;;;;11.05;9.93;;;22.10;99.90;;;;;;5086914;28;20194;-71
2022/08/27 09:04:50;;;;;;;12.48;10.18;;;22.10;99.90;;;;;;5096058;28;20228;-71
2022/08/27 09:07:23;;;;;;;11.27;9.90;;;22.10;99.90;;;;;;5106817;28;20562;-71
2022/08/27 09:09:56;;;;;;;11.80;10.50;;;22.10;99.90;;;;;;5106645;28;20576;-71
2022/08/27 09:12:28;;;;;;;12.23;9.65;;;22.10;99.90;;;;;;5105932;28;20190;-71
2022/08/27 09:15:03;;;;;;;13.52;10.35;;;22.10;99.90;;;;;;5105279;28;20569;-71
2022/08/27 09:17:30;;;;;;;10.82;9.75;;;22.10;99.90;;;;;;5100294;28;20246;-71
2022/08/27 09:19:56;;;;;;;14.50;9.93;;;22.20;99.90;;;;;;5093464;28;20238;-71
2022/08/27 09:22:29;;;;;;;15.20;9.13;;;22.30;99.90;;;;;;5095978;28;20198;-71
2022/08/27 09:25:09;;;;;;;10.40;8.98;;;22.30;99.90;;;;;;5101398;28;20664;-71
2022/08/27 09:27:40;;;;;;;9.45;8.55;;;22.40;99.90;;;;;;5105756;28;20652;-71
2022/08/27 09:30:11;;;;;;;9.73;8.70;;;22.40;99.90;;;;;;5104170;28;20202;-71
2022/08/27 09:32:39;;;;;;;10.27;8.32;;;22.40;99.90;;;;;;5106002;28;20218;-71
2022/08/27 09:35:09;;;;;;;9.48;8.52;;;22.40;99.90;;;;;;5105601;28;20209;-72
2022/08/27 09:37:42;;;;;;;9.13;8.30;;;22.40;99.90;;;;;;5105882;28;20660;-72
2022/08/27 09:40:18;;;;;;;12.05;8.95;;;22.40;99.90;;;;;;5091221;28;20198;-72
2022/08/27 09:42:47;;;;;;;11.38;8.57;;;22.40;99.90;;;;;;5090259;28;20209;-72
2022/08/27 09:45:19;;;;;;;9.35;8.52;;;22.30;99.90;;;;;;5106597;28;20210;-72
2022/08/27 09:47:48;;;;;;;9.77;8.05;;;22.40;99.90;;;;;;5095308;27;20371;-71
2022/08/27 09:50:17;;;;;;;14.13;8.50;;;22.40;99.90;;;;;;5086283;28;20306;-71
2022/08/27 09:52:54;;;;;;;9.20;8.30;;;22.30;99.90;;;;;;5085418;28;20282;-71
2022/08/27 09:55:30;;;;;;;8.77;7.97;;;22.30;99.90;;;;;;5096316;28;20194;-71
2022/08/27 09:57:59;;;;;;;9.13;8.00;;;22.30;99.90;;;;;;5105992;28;21021;-71
2022/08/27 10:00:35;;;;;;;9.32;8.15;;;22.30;99.90;;;;;;5105531;28;20275;-71
2022/08/27 10:03:03;;;;;;;9.60;8.32;;;22.30;99.90;;;;;;5093237;28;20217;-71
2022/08/27 10:05:35;;;;;;;9.32;8.27;;;22.20;99.90;;;;;;5085201;28;20237;-71
2022/08/27 10:08:04;;;;;;;10.95;9.55;;;22.30;99.90;;;;;;5085228;28;20195;-71
2022/08/27 10:10:41;;;;;;;11.13;9.80;;;22.30;99.90;;;;;;5085078;28;20929;-71
2022/08/27 10:13:20;;;;;;;10.48;9.45;;;22.40;99.90;;;;;;5092442;28;20224;-71
2022/08/27 10:16:04;;;;;;;11.15;9.88;;;22.60;99.90;;;;;;5105412;28;20198;-71
2022/08/27 10:18:40;;;;;;;10.48;9.18;;;22.70;99.90;;;;;;5102875;28;20718;-71
2022/08/27 10:21:19;;;;;;;10.18;9.00;;;22.90;99.90;;;;;;5085897;28;20582;-71
2022/08/27 10:23:55;;;;;;;9.77;8.85;;;23.10;99.90;;;;;;5087031;28;20195;-71
2022/08/27 10:26:27;;;;;;;9.93;8.85;;;23.30;99.90;;;;;;5085195;28;20656;-71
2022/08/27 10:29:09;;;;;;;11.20;8.77;;;23.40;99.90;;;;;;5085078;28;20555;-71
2022/08/27 10:31:44;;;;;;;11.45;8.52;;;23.40;99.90;;;;;;5088915;28;20190;-71
2022/08/27 10:34:27;;;;;;;11.38;8.50;;;23.40;99.90;;;;;;5092021;28;20234;-71
2022/08/27 10:37:08;;;;;;;8.75;7.97;;;23.40;99.90;;;;;;5105757;28;20204;-71
2022/08/27 10:39:51;;;;;;;8.63;8.02;;;23.40;99.90;;;;;;5096934;28;20222;-71
2022/08/27 10:42:25;;;;;;;9.13;8.20;;;23.30;99.90;;;;;;5091809;28;20202;-71
2022/08/27 10:45:01;;;;;;;9.45;8.65;;;23.20;99.90;;;;;;5101827;28;20701;-71
2022/08/27 10:47:49;;;;;;;9.60;8.68;;;23.20;99.90;;;;;;5089507;28;20205;-71
2022/08/27 10:50:26;;;;;;;10.13;8.00;;;23.30;99.90;;;;;;5090096;28;20198;-71
2022/08/27 10:52:58;;;;;;;9.00;8.05;;;23.40;99.90;;;;;;5088605;28;20237;-71
2022/08/27 10:55:30;;;;;;;7.97;7.20;;;23.40;99.90;;;;;;5098393;28;20209;-71
2022/08/27 10:58:28;;;;;;;13.45;7.78;;;23.60;99.90;;;;;;5106791;28;20500;-71
2022/08/27 11:01:06;;;;;;;7.60;6.90;;;23.80;99.90;;;;;;5108535;28;20198;-70
2022/08/27 11:03:41;;;;;;;7.38;6.68;;;24.00;99.90;;;;;;5109246;28;20198;-71
2022/08/27 11:06:15;;;;;;;7.47;6.38;;;24.10;99.90;;;;;;5102436;28;20190;-70
2022/08/27 11:08:48;;;;;;;7.00;6.30;;;24.20;99.90;;;;;;5088584;28;20195;-71
2022/08/27 11:11:24;;;;;;;6.68;6.22;;;24.30;99.90;;;;;;5089226;28;20600;-70
2022/08/27 11:13:53;;;;;;;5.93;5.22;;;24.20;99.90;;;;;;5101897;28;20222;-71
2022/08/27 11:16:25;;;;;;;6.13;5.57;;;24.10;99.90;;;;;;5098419;28;20216;-71
2022/08/27 11:18:58;;;;;;;6.13;5.63;;;24.00;99.90;;;;;;5098770;28;20257;-71
2022/08/27 11:21:33;;;;;;;7.03;5.35;;;23.90;99.90;;;;;;5098969;28;20206;-71
2022/08/27 11:24:07;;;;;;;6.47;5.88;;;23.80;99.90;;;;;;5109121;28;20225;-71
2022/08/27 11:26:38;;;;;;;6.25;5.65;;;23.70;99.90;;;;;;5109101;28;20198;-70
2022/08/27 11:29:14;;;;;;;6.45;5.57;;;23.70;99.90;;;;;;5109106;27;20550;-70
2022/08/27 11:31:47;;;;;;;6.35;5.85;;;23.70;99.90;;;;;;5104238;28;20564;-71
2022/08/27 11:34:24;;;;;;;6.50;5.30;;;23.70;99.90;;;;;;5100165;28;20222;-70
2022/08/27 11:37:07;;;;;;;6.85;6.25;;;23.60;99.90;;;;;;5108352;28;20259;-71
2022/08/27 11:39:51;;;;;;;10.45;7.53;;;23.60;99.90;;;;;;5105631;28;20201;-71
2022/08/27 11:42:26;;;;;;;7.07;6.43;;;23.60;99.90;;;;;;5103698;28;20190;-71
2022/08/27 11:44:58;;;;;;;7.45;6.75;;;23.60;99.90;;;;;;5108603;28;20211;-71
2022/08/27 11:47:27;;;;;;;6.55;5.95;;;23.50;99.90;;;;;;5108644;28;20212;-71
2022/08/27 11:49:59;;;;;;;6.18;5.68;;;23.50;99.90;;;;;;5107403;28;20698;-71
2022/08/27 11:52:29;;;;;;;5.90;4.88;;;23.50;99.90;;;;;;5105795;28;20300;-71
2022/08/27 11:55:12;;;;;;;6.40;5.78;;;23.50;99.90;;;;;;5099763;27;20233;-70
2022/08/27 11:57:39;;;;;;;6.00;5.05;;;23.50;99.90;;;;;;5087332;28;20201;-71
2022/08/27 12:00:18;;;;;;;6.20;5.60;;;23.50;99.90;;;;;;5105755;28;20737;-71
2022/08/27 12:02:56;;;;;;;5.97;5.47;;;23.50;99.90;;;;;;5107902;28;20198;-71
2022/08/27 12:05:34;;;;;;;8.52;4.75;;;23.60;99.90;;;;;;5087889;28;20195;-71
2022/08/27 12:08:14;;;;;;;7.60;5.75;;;23.60;99.90;;;;;;5102340;28;20284;-71
2022/08/27 12:10:52;;;;;;;6.18;5.57;;;23.50;99.90;;;;;;5107927;28;20197;-71
2022/08/27 12:13:25;;;;;;;6.68;5.70;;;23.60;99.90;;;;;;5098741;28;20206;-71
2022/08/27 12:16:01;;;;;;;7.57;5.22;;;23.60;99.90;;;;;;5104313;28;20290;-71
2022/08/27 12:18:41;;;;;;;7.18;5.28;;;23.70;99.90;;;;;;5103288;28;20660;-71
2022/08/27 12:21:20;;;;;;;5.78;5.07;;;23.70;99.90;;;;;;5087378;28;20297;-71
2022/08/27 12:24:01;;;;;;;7.40;5.57;;;23.80;99.90;;;;;;5087393;28;20577;-71
2022/08/27 12:26:33;;;;;;;8.43;5.15;;;23.80;99.90;;;;;;5091173;28;20209;-71
2022/08/27 12:29:28;;;;;;;8.85;5.25;;;23.90;99.90;;;;;;5107971;28;20194;-71
2022/08/27 12:32:05;;;;;;;5.70;4.90;;;24.00;99.90;;;;;;5093573;28;20194;-71
2022/08/27 12:34:43;;;;;;;10.00;4.68;;;24.10;99.90;;;;;;5087198;28;20223;-71
2022/08/27 12:37:12;;;;;;;7.15;4.70;;;24.30;99.90;;;;;;5103880;28;20217;-70
2022/08/27 12:39:48;;;;;;;5.72;4.38;;;24.70;99.90;;;;;;5094046;28;20230;-71
2022/08/27 12:42:18;;;;;;;5.00;4.60;;;25.00;99.90;;;;;;5104301;28;20288;-73
2022/08/27 12:44:45;;;;;;;5.43;4.15;;;25.20;99.90;;;;;;5099320;28;20209;-71
2022/08/27 12:47:15;;;;;;;4.72;4.40;;;25.30;99.90;;;;;;5096439;28;20210;-71
2022/08/27 12:49:47;;;;;;;5.32;4.30;;;25.40;99.90;;;;;;5105673;28;20198;-71
2022/08/27 12:52:25;;;;;;;5.10;4.60;;;25.30;99.90;;;;;;5105320;28;20238;-71
2022/08/27 12:55:05;;;;;;;7.05;4.43;;;25.20;99.90;;;;;;5104615;28;21103;-71
2022/08/27 12:57:38;;;;;;;4.55;4.15;;;25.20;99.90;;;;;;5105741;28;20186;-71
2022/08/27 13:00:09;;;;;;;6.97;4.32;;;25.00;99.90;;;;;;5105048;28;20194;-71